Time;durP1;ratioP1;P1;durP2;ratioP2;P2;SDS_P1;SDS_P2;PMS_P1;PMS_P2;Temp;Humidity;BMP_temperature;BMP_pressure;BME280_temperature;BME280_humidity;BME280_pressure;Samples;Min_cycle;Max_cycle;Signal;HPM_P1;HPM_P2
2022/01/26 00:06:08;;;;;;;;;;;;;;;2.67;100.00;99073.03;5032300;28;20049;-80
2022/01/26 00:08:36;;;;;;;36.75;16.00;;;;;;;2.52;100.00;99078.81;5031642;28;19921;-80
2022/01/26 00:11:03;;;;;;;42.30;17.13;;;;;;;2.37;100.00;99060.53;5031578;28;20072;-83
2022/01/26 00:13:29;;;;;;;38.60;16.65;;;;;;;2.51;100.00;99069.16;5031441;28;20060;-83
2022/01/26 00:15:58;;;;;;;42.75;17.35;;;;;;;2.51;100.00;99056.63;5031598;28;20053;-83
2022/01/26 00:18:29;;;;;;;43.05;17.02;;;;;;;2.43;100.00;99067.63;5028893;28;20144;-82
2022/01/26 00:21:04;;;;;;;41.45;16.85;;;;;;;2.31;100.00;99065.94;5031041;28;20049;-81
2022/01/26 00:26:24;;;;;;;39.63;17.15;;;;;;;2.45;100.00;99070.09;5031443;28;20107;-81
2022/01/26 00:39:44;;;;;;;35.10;14.40;;;;;;;2.37;100.00;99065.06;5029765;28;20057;-84
2022/01/26 00:42:11;;;;;;;32.10;14.65;;;;;;;2.34;100.00;99074.34;5011229;28;20053;-81
2022/01/26 00:44:43;;;;;;;32.75;13.82;;;;;;;2.39;100.00;99085.16;5030783;28;20532;-82
2022/01/26 00:47:19;;;;;;;36.45;14.27;;;;;;;2.45;100.00;99081.56;5030273;28;20115;-82
2022/01/26 00:49:45;;;;;;;35.22;14.73;;;;;;;2.41;100.00;99056.34;5011194;28;20452;-82
2022/01/26 00:52:16;;;;;;;34.20;14.45;;;;;;;2.48;100.00;99072.28;5030039;28;20053;-82
2022/01/26 00:54:43;;;;;;;35.83;14.38;;;;;;;2.24;100.00;99074.06;5012432;28;20056;-82
2022/01/26 00:57:10;;;;;;;34.05;14.07;;;;;;;2.15;100.00;99077.25;5013197;28;20108;-82
2022/01/26 00:59:36;;;;;;;37.53;15.13;;;;;;;2.13;100.00;99066.81;5029425;28;20057;-81
2022/01/26 01:02:03;;;;;;;36.35;15.07;;;;;;;2.22;100.00;99075.34;5047478;28;20049;-81
2022/01/26 01:04:30;;;;;;;35.97;15.63;;;;;;;2.32;100.00;99075.59;5049826;28;20053;-82
2022/01/26 01:07:00;;;;;;;36.92;15.25;;;;;;;2.22;100.00;99078.81;5050589;28;20049;-81
2022/01/26 01:09:31;;;;;;;39.47;16.05;;;;;;;2.23;100.00;99072.44;5051358;28;20692;-82
2022/01/26 01:12:00;;;;;;;38.67;15.90;;;;;;;2.27;100.00;99068.25;5031694;28;20052;-80
2022/01/26 01:14:27;;;;;;;39.83;17.25;;;;;;;2.30;100.00;99075.81;5011443;28;20077;-80
2022/01/26 01:16:57;;;;;;;36.75;16.20;;;;;;;2.10;100.00;99064.59;5030198;28;20050;-82
2022/01/26 01:22:36;;;;;;;35.22;14.95;;;;;;;2.20;100.00;99064.88;5033811;28;20107;-82
2022/01/26 01:30:37;;;;;;;43.33;16.85;;;;;;;2.36;100.00;99074.94;5016206;28;20061;-83
2022/01/26 01:35:32;;;;;;;39.70;16.42;;;;;;;2.32;100.00;99056.91;5034870;28;20448;-80
2022/01/26 01:38:07;;;;;;;40.10;16.33;;;;;;;2.40;100.00;99068.06;5034165;28;20046;-82
2022/01/26 01:40:38;;;;;;;48.72;18.08;;;;;;;2.28;100.00;99066.41;5016483;28;20460;-82
2022/01/26 01:43:06;;;;;;;44.65;17.65;;;;;;;2.29;100.00;99062.69;5014506;28;20103;-82
2022/01/26 01:45:38;;;;;;;39.55;16.63;;;;;;;2.20;100.00;99059.50;5032826;28;20188;-81
2022/01/26 01:48:09;;;;;;;39.45;16.85;;;;;;;2.36;100.00;99050.88;5023406;28;20073;-83
2022/01/26 01:50:41;;;;;;;42.00;16.77;;;;;;;2.28;100.00;99061.06;5034221;28;20060;-81
2022/01/26 01:53:09;;;;;;;38.65;16.88;;;;;;;2.39;100.00;99052.28;5035371;28;20045;-81
2022/01/26 01:55:41;;;;;;;35.95;15.38;;;;;;;2.52;100.00;99057.44;5035477;28;20041;-82
2022/01/26 01:58:09;;;;;;;39.63;16.00;;;;;;;2.43;100.00;99056.94;5033301;28;20061;-83
2022/01/26 02:00:37;;;;;;;37.45;16.10;;;;;;;2.32;100.00;99049.69;5034520;28;20058;-82
2022/01/26 02:03:04;;;;;;;40.47;15.38;;;;;;;2.39;100.00;99055.78;5032208;28;20045;-81
2022/01/26 02:05:31;;;;;;;35.90;15.75;;;;;;;2.36;100.00;99058.06;5034331;28;20054;-82
2022/01/26 02:08:01;;;;;;;39.58;16.05;;;;;;;2.60;100.00;99049.09;5034474;28;20666;-81
2022/01/26 02:10:29;;;;;;;37.60;16.00;;;;;;;2.30;100.00;99065.13;5035491;28;20049;-82
2022/01/26 02:13:00;;;;;;;37.72;15.98;;;;;;;-141.50;100.00;99063.72;5035455;28;20045;-82
2022/01/26 02:15:36;;;;;;;37.60;15.25;;;;;;;2.27;100.00;99070.13;5034089;28;20045;-81
2022/01/26 03:01:53;;;;;;;41.00;15.48;;;;;;;2.34;100.00;99052.97;5034076;28;20087;-83
2022/01/26 03:09:18;;;;;;;32.42;14.32;;;;;;;2.18;100.00;99050.91;5056949;28;20045;-83
2022/01/26 03:11:46;;;;;;;36.80;15.40;;;;;;;2.19;100.00;99047.22;5043069;28;20076;-82
2022/01/26 03:14:30;;;;;;;30.27;13.18;;;;;;;2.13;100.00;99039.28;5052432;28;20101;-83
2022/01/26 03:17:03;;;;;;;28.08;12.80;;;;;;;2.02;100.00;99040.84;5056199;28;20148;-83
2022/01/26 03:19:40;;;;;;;32.38;14.13;;;;;;;2.08;100.00;99044.50;5055156;28;20107;-85
2022/01/26 03:30:31;;;;;;;30.58;14.25;;;;;;;2.25;100.00;99032.13;5038010;28;20049;-81
2022/01/26 03:38:25;;;;;;;27.25;11.73;;;;;;;2.00;100.00;99042.13;5033713;28;20049;-81
2022/01/26 03:43:45;;;;;;;27.20;12.55;;;;;;;1.97;100.00;99014.00;5008278;28;20115;-80
2022/01/26 03:46:12;;;;;;;25.30;12.52;;;;;;;2.00;100.00;99021.56;5031957;28;20049;-81
2022/01/26 03:48:38;;;;;;;30.88;13.15;;;;;;;2.13;100.00;99031.28;5031184;28;20103;-82
2022/01/26 03:51:05;;;;;;;26.13;12.70;;;;;;;2.09;100.00;99035.44;5032113;28;20079;-82
2022/01/26 03:53:32;;;;;;;25.40;12.35;;;;;;;2.03;100.00;99039.00;5031407;28;20080;-82
2022/01/26 03:55:58;;;;;;;30.33;12.15;;;;;;;2.00;100.00;99034.94;5032328;28;20611;-82
2022/01/26 03:58:25;;;;;;;25.00;12.25;;;;;;;1.96;100.00;99020.41;5029939;28;20616;-82
2022/01/26 04:00:51;;;;;;;29.02;13.02;;;;;;;2.11;100.00;99041.38;5032889;28;20080;-81
2022/01/26 04:03:18;;;;;;;27.08;12.55;;;;;;;2.27;100.00;99036.19;5032191;28;20513;-81
2022/01/26 04:05:45;;;;;;;30.20;11.50;;;;;;;2.05;100.00;99032.41;5032714;28;20052;-82
2022/01/26 04:08:20;;;;;;;27.02;11.43;;;;;;;2.05;100.00;99034.25;5032086;28;20053;-82
2022/01/26 04:13:16;;;;;;;26.13;11.43;;;;;;;2.09;100.00;99041.56;5031090;28;19924;-83
2022/01/26 04:15:43;;;;;;;26.23;11.65;;;;;;;2.21;100.00;99039.78;5031791;28;20111;-82
2022/01/26 04:18:14;;;;;;;28.27;12.70;;;;;;;2.15;100.00;99039.88;5031133;28;20084;-81
2022/01/26 04:20:45;;;;;;;27.60;12.15;;;;;;;2.26;100.00;99041.78;5032241;28;20103;-84
2022/01/26 04:23:30;;;;;;;24.83;11.40;;;;;;;2.30;100.00;99037.59;5032241;28;20147;-80
2022/01/26 04:25:57;;;;;;;29.23;12.27;;;;;;;2.32;100.00;99030.97;5032854;28;20053;-80
2022/01/26 04:28:33;;;;;;;30.00;13.05;;;;;;;2.17;100.00;99025.25;5029800;28;20115;-81
2022/01/26 04:31:00;;;;;;;27.15;11.80;;;;;;;2.13;100.00;99013.38;5031202;28;20387;-84
2022/01/26 04:33:26;;;;;;;25.50;11.98;;;;;;;2.01;100.00;99017.88;5031301;28;20049;-83
2022/01/26 04:35:53;;;;;;;28.60;12.13;;;;;;;2.24;100.00;99004.63;5030879;28;20053;-82
2022/01/26 04:38:25;;;;;;;24.67;11.68;;;;;;;2.20;100.00;99002.59;5031161;28;20529;-81
2022/01/26 04:41:07;;;;;;;27.08;10.90;;;;;;;2.07;100.00;99008.94;5032087;28;20049;-82
2022/01/26 04:43:35;;;;;;;20.45;10.07;;;;;;;2.16;100.00;99006.78;5010759;28;20049;-81
2022/01/26 04:46:01;;;;;;;23.88;10.60;;;;;;;2.22;100.00;99012.00;5032167;28;20045;-82
2022/01/26 04:48:31;;;;;;;20.35;9.95;;;;;;;2.38;100.00;99002.53;5014094;28;20045;-81
2022/01/26 04:50:57;;;;;;;21.42;10.57;;;;;;;2.25;100.00;99003.53;5032284;28;20057;-82
2022/01/26 04:53:24;;;;;;;22.48;10.43;;;;;;;2.15;100.00;99010.47;5032744;28;20045;-82
2022/01/26 04:55:52;;;;;;;22.30;10.25;;;;;;;2.15;100.00;99002.47;5032655;28;20049;-82
2022/01/26 04:58:18;;;;;;;22.35;9.82;;;;;;;2.16;100.00;98993.41;5030406;28;20052;-81
2022/01/26 05:00:45;;;;;;;22.55;10.18;;;;;;;2.22;100.00;98995.97;5030439;28;20103;-81
2022/01/26 05:03:12;;;;;;;23.05;10.13;;;;;;;2.21;100.00;98986.34;5032184;28;20057;-81
2022/01/26 05:05:39;;;;;;;24.95;11.30;;;;;;;2.18;100.00;98996.66;5033206;28;20050;-81
2022/01/26 05:08:05;;;;;;;25.77;10.95;;;;;;;2.15;100.00;98997.13;5031445;28;20053;-81
2022/01/26 05:10:32;;;;;;;24.35;11.25;;;;;;;2.16;100.00;99004.09;5031926;28;20270;-80
2022/01/26 05:12:58;;;;;;;24.80;11.68;;;;;;;2.08;100.00;98996.41;5015826;28;20079;-81
2022/01/26 05:15:26;;;;;;;25.67;11.90;;;;;;;2.24;100.00;98988.59;5033056;28;20741;-83
2022/01/26 05:17:52;;;;;;;29.20;12.35;;;;;;;2.22;100.00;98995.19;5031022;28;20065;-81
2022/01/26 05:20:19;;;;;;;28.27;12.38;;;;;;;2.26;100.00;98978.47;5034490;28;20099;-81
2022/01/26 05:22:46;;;;;;;27.95;11.82;;;;;;;2.32;100.00;98982.09;5035341;28;20049;-82
2022/01/26 05:25:13;;;;;;;32.15;12.30;;;;;;;2.17;100.00;98990.50;5033670;28;20115;-80
2022/01/26 05:27:41;;;;;;;28.52;13.02;;;;;;;2.20;100.00;98986.56;5033472;28;20065;-82
2022/01/26 05:30:08;;;;;;;29.50;12.73;;;;;;;2.02;100.00;98971.41;5031367;28;20053;-81
2022/01/26 05:32:35;;;;;;;28.40;12.70;;;;;;;1.90;100.00;98970.56;5035551;28;20053;-82
2022/01/26 05:35:02;;;;;;;28.58;11.98;;;;;;;1.89;100.00;98976.94;5032056;28;20053;-81
2022/01/26 05:37:29;;;;;;;33.55;13.07;;;;;;;2.06;100.00;98972.63;5031979;28;20057;-80
2022/01/26 05:39:55;;;;;;;33.85;13.10;;;;;;;2.18;100.00;98964.63;5031960;28;20053;-83
2022/01/26 05:42:22;;;;;;;31.42;13.15;;;;;;;2.15;100.00;98965.06;5031332;28;20111;-82
2022/01/26 05:44:50;;;;;;;32.35;12.73;;;;;;;2.06;100.00;98966.44;5030506;28;20107;-80
2022/01/26 05:47:19;;;;;;;35.38;13.30;;;;;;;1.99;100.00;98961.19;5031283;28;20049;-81
2022/01/26 05:49:46;;;;;;;30.23;13.35;;;;;;;1.95;100.00;98961.88;5030702;28;20053;-84
2022/01/26 05:52:13;;;;;;;29.55;13.02;;;;;;;1.87;100.00;98947.81;5031807;28;20053;-80
2022/01/26 05:54:39;;;;;;;29.58;12.73;;;;;;;2.06;100.00;98951.25;5030707;28;20049;-81
2022/01/26 05:57:06;;;;;;;31.65;12.60;;;;;;;2.01;100.00;98955.63;5026797;28;20053;-81
2022/01/26 05:59:40;;;;;;;30.25;13.18;;;;;;;1.90;100.00;98938.53;5029907;28;20045;-81
2022/01/26 06:02:07;;;;;;;30.45;12.40;;;;;;;1.82;100.00;98955.69;5032122;28;20100;-80
2022/01/26 06:04:34;;;;;;;28.33;12.40;;;;;;;1.69;100.00;98947.03;5033147;28;20050;-82
2022/01/26 06:07:00;;;;;;;31.77;12.90;;;;;;;1.80;100.00;98956.94;5035582;28;20060;-81
2022/01/26 06:09:27;;;;;;;29.45;12.25;;;;;;;1.74;100.00;98955.16;5034804;28;20053;-82
2022/01/26 06:12:03;;;;;;;28.88;11.70;;;;;;;1.80;100.00;98965.78;5018393;28;20060;-83
2022/01/26 06:14:29;;;;;;;30.40;12.50;;;;;;;1.84;100.00;98956.25;5031516;28;20468;-80
2022/01/26 06:16:56;;;;;;;29.88;12.13;;;;;;;1.89;100.00;98960.91;5035357;28;20049;-82
2022/01/26 06:19:22;;;;;;;32.95;12.68;;;;;;;1.77;100.00;98950.22;5035004;28;20560;-82
2022/01/26 06:21:49;;;;;;;27.05;11.32;;;;;;;1.97;100.00;98965.94;5047246;28;20033;-83
2022/01/26 06:24:15;;;;;;;32.67;12.98;;;;;;;1.68;100.00;98959.56;5057721;28;20037;-83
2022/01/26 06:26:42;;;;;;;28.42;11.63;;;;;;;1.78;100.00;98959.81;5052972;28;20042;-84
2022/01/26 06:29:09;;;;;;;32.15;12.05;;;;;;;1.80;100.00;98983.66;5045889;28;20045;-83
2022/01/26 06:31:39;;;;;;;30.77;12.20;;;;;;;1.94;100.00;98976.28;5038065;28;20060;-82
2022/01/26 06:34:10;;;;;;;29.55;11.43;;;;;;;1.83;100.00;98975.19;5039140;28;20045;-81
2022/01/26 06:36:43;;;;;;;32.35;11.85;;;;;;;1.97;100.00;98967.78;5043943;28;20081;-82
2022/01/26 06:39:13;;;;;;;29.65;11.90;;;;;;;2.00;100.00;98957.50;5031071;28;20049;-81
2022/01/26 06:41:50;;;;;;;27.50;11.13;;;;;;;1.91;100.00;98968.72;5035195;28;20057;-82
2022/01/26 06:44:27;;;;;;;31.85;11.50;;;;;;;1.84;100.00;98968.78;5017756;28;20112;-82
2022/01/26 06:51:53;;;;;;;23.75;9.75;;;;;;;1.84;100.00;98974.97;5029595;28;20099;-82
2022/01/26 06:54:20;;;;;;;23.33;8.93;;;;;;;2.00;100.00;98989.53;5031001;28;20103;-80
2022/01/26 06:56:47;;;;;;;21.77;8.38;;;;;;;2.18;100.00;98981.47;5031838;28;20045;-83
2022/01/26 06:59:19;;;;;;;19.65;7.97;;;;;;;2.11;100.00;98983.44;5030004;28;20053;-82
2022/01/26 07:01:46;;;;;;;21.65;8.70;;;;;;;2.07;100.00;98987.56;5042409;28;20049;-81
2022/01/26 07:04:12;;;;;;;25.33;9.20;;;;;;;2.07;100.00;98978.75;5024555;28;20061;-81
2022/01/26 07:06:39;;;;;;;22.85;8.65;;;;;;;1.91;100.00;98992.75;5026026;28;20103;-81
2022/01/26 07:09:06;;;;;;;23.75;9.48;;;;;;;1.86;100.00;98983.53;5024689;28;20057;-82
2022/01/26 07:11:32;;;;;;;27.48;9.70;;;;;;;1.99;100.00;98985.22;5031537;28;20107;-82
2022/01/26 07:14:01;;;;;;;24.33;9.57;;;;;;;1.85;100.00;98973.09;5030010;28;20053;-80
2022/01/26 07:21:58;;;;;;;24.17;8.98;;;;;;;1.82;100.00;98982.38;5032064;28;20045;-81
2022/01/26 07:24:24;;;;;;;22.95;9.00;;;;;;;1.94;100.00;98982.41;5031504;28;20054;-81
2022/01/26 07:26:53;;;;;;;26.88;10.32;;;;;;;2.09;100.00;98993.50;5032553;28;20049;-82
2022/01/26 07:29:24;;;;;;;28.55;9.30;;;;;;;2.21;100.00;98973.00;5029742;28;20501;-82
2022/01/26 07:31:52;;;;;;;25.42;9.57;;;;;;;2.04;100.00;98981.91;5030573;28;20069;-83
2022/01/26 07:34:23;;;;;;;28.95;10.50;;;;;;;2.00;100.00;98989.53;5032274;28;20139;-82
2022/01/26 07:36:53;;;;;;;25.83;9.90;;;;;;;2.13;100.00;98996.53;5032081;28;20042;-82
2022/01/26 07:39:30;;;;;;;28.38;9.93;;;;;;;1.92;100.00;98989.03;5026882;28;20152;-81
2022/01/26 07:41:57;;;;;;;31.45;11.00;;;;;;;1.88;100.00;98975.34;5014848;28;20123;-82
2022/01/26 07:44:24;;;;;;;31.30;10.25;;;;;;;1.71;100.00;98963.63;5030287;28;20083;-82
2022/01/26 07:46:53;;;;;;;31.88;10.23;;;;;;;1.60;100.00;98959.88;5034126;28;20460;-82
2022/01/26 07:49:21;;;;;;;28.25;9.98;;;;;;;1.56;100.00;98960.53;5033888;28;20112;-83
2022/01/26 07:51:50;;;;;;;28.00;9.75;;;;;;;1.71;100.00;98977.78;5032279;28;20103;-81
2022/01/26 07:54:21;;;;;;;28.35;9.90;;;;;;;1.41;100.00;98954.78;5031403;28;20053;-82
2022/01/26 07:56:50;;;;;;;31.73;10.68;;;;;;;1.56;100.00;98968.53;5033871;28;20045;-81
2022/01/26 07:59:16;;;;;;;33.80;10.27;;;;;;;1.49;100.00;98963.31;5029216;28;20472;-83
2022/01/26 08:01:43;;;;;;;30.60;10.10;;;;;;;1.66;100.00;98971.50;5014680;28;20056;-81
2022/01/26 08:04:10;;;;;;;27.40;9.15;;;;;;;1.62;100.00;98971.16;5031966;28;20595;-80
2022/01/26 08:06:40;;;;;;;30.95;10.43;;;;;;;1.97;100.00;98979.28;5032933;28;20046;-81
2022/01/26 08:09:09;;;;;;;31.95;11.48;;;;;;;1.72;100.00;98984.78;5031321;28;20050;-80
2022/01/26 08:11:37;;;;;;;36.55;11.45;;;;;;;1.75;100.00;98970.97;5032893;28;20057;-82
2022/01/26 08:14:04;;;;;;;28.80;10.35;;;;;;;1.75;100.00;98986.19;5031139;28;20045;-80
2022/01/26 08:16:31;;;;;;;29.55;10.82;;;;;;;1.66;100.00;98992.84;5033124;28;20099;-82
2022/01/26 08:18:57;;;;;;;32.63;10.75;;;;;;;2.01;100.00;98983.16;5032726;28;20398;-80
2022/01/26 08:21:24;;;;;;;31.38;11.48;;;;;;;2.05;100.00;98987.00;5031461;28;20107;-81
2022/01/26 08:23:50;;;;;;;32.50;10.50;;;;;;;1.95;100.00;98984.06;5034747;28;20053;-80
2022/01/26 08:26:27;;;;;;;34.10;11.95;;;;;;;1.83;100.00;98967.97;5033452;28;20609;-82
2022/01/26 08:28:56;;;;;;;32.40;11.43;;;;;;;1.74;100.00;98964.00;5029446;28;20089;-81
2022/01/26 08:31:25;;;;;;;31.20;10.50;;;;;;;1.92;100.00;98956.97;5032201;28;20049;-82
2022/01/26 08:33:52;;;;;;;30.35;11.65;;;;;;;1.99;100.00;98971.88;5022959;28;20053;-81
2022/01/26 08:36:19;;;;;;;32.05;11.75;;;;;;;1.76;100.00;98958.44;5015989;28;20052;-80
2022/01/26 08:38:45;;;;;;;35.10;10.90;;;;;;;1.76;100.00;98953.09;5027844;28;20045;-82
2022/01/26 08:41:42;;;;;;;28.23;10.43;;;;;;;1.68;100.00;98945.38;5023979;28;20057;-81
2022/01/26 08:44:14;;;;;;;32.15;11.93;;;;;;;1.80;100.00;98948.94;5016322;28;20284;-81
2022/01/26 08:46:41;;;;;;;36.40;11.52;;;;;;;1.84;100.00;98921.56;5013716;28;20037;-82
2022/01/26 08:49:09;;;;;;;32.63;11.38;;;;;;;1.87;100.00;98922.97;5012709;28;20100;-81
2022/01/26 08:51:51;;;;;;;32.20;10.95;;;;;;;2.18;100.00;98965.44;5031123;28;20144;-81
2022/01/26 08:54:25;;;;;;;32.55;11.15;;;;;;;1.90;100.00;98919.84;5030432;28;20103;-81
2022/01/26 08:57:00;;;;;;;37.08;11.60;;;;;;;1.85;100.00;98949.06;5013014;28;20050;-81
2022/01/26 08:59:32;;;;;;;29.15;11.20;;;;;;;1.72;100.00;98920.72;5009140;28;20085;-81
2022/01/26 09:02:04;;;;;;;31.85;10.93;;;;;;;2.07;100.00;98949.38;5030647;28;20081;-81
2022/01/26 09:04:38;;;;;;;30.70;11.73;;;;;;;1.95;100.00;98954.69;5014094;28;20104;-81
2022/01/26 09:07:14;;;;;;;30.15;12.15;;;;;;;1.85;100.00;98938.41;5014018;28;20049;-81
2022/01/26 09:09:46;;;;;;;29.50;11.07;;;;;;;2.02;100.00;98935.88;5028727;28;20532;-81
2022/01/26 09:12:19;;;;;;;33.22;11.65;;;;;;;2.03;100.00;98946.34;5032372;28;20067;-80
2022/01/26 09:14:47;;;;;;;29.67;10.88;;;;;;;2.20;100.00;98955.34;5048074;28;20055;-81
2022/01/26 09:17:33;;;;;;;30.23;11.90;;;;;;;2.01;100.00;98940.44;5036163;28;20056;-80
2022/01/26 09:20:07;;;;;;;32.10;12.07;;;;;;;2.15;100.00;98923.16;5066452;28;20316;-81
2022/01/26 09:22:36;;;;;;;32.13;11.98;;;;;;;2.32;100.00;98928.66;5066320;28;20049;-80
2022/01/26 09:25:13;;;;;;;28.45;11.10;;;;;;;2.21;100.00;98922.25;5049688;28;20063;-80
2022/01/26 09:27:43;;;;;;;29.98;10.25;;;;;;;2.42;100.00;98923.56;5062724;28;20064;-80
2022/01/26 09:30:12;;;;;;;30.83;11.00;;;;;;;2.19;100.00;98945.72;5049782;28;20103;-81
2022/01/26 09:32:39;;;;;;;30.88;10.82;;;;;;;2.76;100.00;98967.41;5052263;28;20049;-81
2022/01/26 09:35:14;;;;;;;26.70;10.73;;;;;;;2.63;100.00;98943.56;5057499;28;20049;-81
2022/01/26 09:38:06;;;;;;;27.83;9.88;;;;;;;2.59;100.00;98969.09;5055833;28;20430;-81
2022/01/26 09:40:33;;;;;;;26.42;10.07;;;;;;;2.65;100.00;98978.88;5043390;28;20111;-81
2022/01/26 09:43:00;;;;;;;26.25;10.77;;;;;;;2.81;100.00;98981.72;5047348;28;20033;-80
2022/01/26 09:45:28;;;;;;;28.38;11.00;;;;;;;2.97;100.00;98981.00;5056616;28;20092;-82
2022/01/26 09:47:54;;;;;;;25.17;10.55;;;;;;;2.93;100.00;98968.31;5057323;28;20045;-82
2022/01/26 09:50:35;;;;;;;25.15;10.90;;;;;;;2.90;100.00;98985.66;5056351;28;20041;-82
2022/01/26 09:53:03;;;;;;;30.27;11.30;;;;;;;2.88;100.00;98985.06;5044668;28;20050;-81
2022/01/26 09:55:30;;;;;;;22.35;10.15;;;;;;;2.64;100.00;98967.38;5033758;28;20540;-82
2022/01/26 09:57:59;;;;;;;26.25;10.70;;;;;;;2.55;100.00;98973.31;5033270;28;20049;-81
2022/01/26 10:00:27;;;;;;;27.00;11.00;;;;;;;2.57;100.00;98965.84;5034608;28;20057;-81
2022/01/26 10:02:58;;;;;;;24.23;11.02;;;;;;;2.63;100.00;98964.94;5034003;28;20349;-80
2022/01/26 10:05:26;;;;;;;23.27;11.05;;;;;;;2.47;100.00;98964.59;5034487;28;20075;-80
2022/01/26 10:15:45;;;;;;;26.50;11.55;;;;;;;2.17;100.00;98957.66;5038562;28;20544;-81
2022/01/26 10:18:19;;;;;;;26.27;10.38;;;;;;;2.28;100.00;98962.19;5015426;28;20099;-81
2022/01/26 10:20:57;;;;;;;26.25;11.32;;;;;;;2.54;100.00;98969.81;5034338;28;20148;-81
2022/01/26 10:23:34;;;;;;;24.13;10.77;;;;;;;2.78;100.00;98960.78;5033177;28;20144;-80
2022/01/26 10:26:14;;;;;;;20.23;8.00;;;;;;;2.41;100.00;98968.16;5035680;28;20057;-81
2022/01/26 10:28:41;;;;;;;21.67;9.35;;;;;;;2.47;100.00;98956.56;5031351;28;20547;-81
2022/01/26 10:31:14;;;;;;;21.33;10.15;;;;;;;2.53;100.00;98943.31;5016556;28;20052;-81
2022/01/26 10:34:06;;;;;;;19.77;9.38;;;;;;;2.59;100.00;98940.53;5033808;28;20096;-81
2022/01/26 10:36:40;;;;;;;20.75;8.80;;;;;;;2.56;100.00;98937.50;5035045;28;20052;-81
2022/01/26 10:39:08;;;;;;;22.05;9.07;;;;;;;2.65;100.00;98944.13;5034687;28;20107;-80
2022/01/26 10:41:37;;;;;;;16.77;7.93;;;;;;;2.60;100.00;98936.00;5033863;28;20059;-82
2022/01/26 10:44:05;;;;;;;20.63;8.07;;;;;;;2.77;100.00;98939.59;5016207;28;20064;-81
2022/01/26 10:46:39;;;;;;;15.30;7.55;;;;;;;2.57;100.00;98949.81;5033485;28;20416;-80
2022/01/26 10:49:41;;;;;;;13.77;6.80;;;;;;;2.27;100.00;98936.53;5034060;28;20484;-80
2022/01/26 10:52:34;;;;;;;19.42;8.25;;;;;;;2.13;100.00;98941.28;5032568;28;20126;-81
2022/01/26 10:55:03;;;;;;;17.20;8.13;;;;;;;2.27;100.00;98950.69;5032850;28;20057;-82
2022/01/26 10:57:30;;;;;;;16.30;8.15;;;;;;;2.34;100.00;98943.41;5032318;28;20041;-80
2022/01/26 10:59:58;;;;;;;14.63;7.65;;;;;;;2.20;100.00;98954.50;5027299;28;20573;-79
2022/01/26 11:02:28;;;;;;;19.50;9.07;;;;;;;2.21;100.00;98946.28;5032055;28;20061;-80
2022/01/26 11:04:55;;;;;;;15.00;7.93;;;;;;;2.14;100.00;98942.88;5033177;28;20049;-80
2022/01/26 11:07:40;;;;;;;15.82;7.90;;;;;;;2.14;100.00;98928.72;5033273;28;20057;-80
2022/01/26 11:10:09;;;;;;;17.23;7.75;;;;;;;2.22;100.00;98953.25;5031123;28;20054;-80
2022/01/26 11:12:41;;;;;;;16.40;8.48;;;;;;;2.23;100.00;98941.53;5032319;28;20049;-82
2022/01/26 11:15:11;;;;;;;17.20;8.15;;;;;;;2.30;100.00;98942.22;5029783;28;20060;-81
2022/01/26 11:17:42;;;;;;;15.70;8.15;;;;;;;2.36;100.00;98932.47;5032021;28;20444;-80
2022/01/26 11:20:17;;;;;;;16.52;7.60;;;;;;;2.17;100.00;98937.09;5032489;28;20053;-81
2022/01/26 11:22:55;;;;;;;17.60;8.63;;;;;;;2.38;100.00;98922.38;5032871;28;20061;-82
2022/01/26 11:25:25;;;;;;;19.42;8.18;;;;;;;2.08;100.00;98913.63;5032034;28;20057;-81
2022/01/26 11:27:54;;;;;;;17.23;8.95;;;;;;;2.13;100.00;98903.88;5033248;28;20130;-79
2022/01/26 11:30:28;;;;;;;18.90;9.25;;;;;;;2.35;100.00;98934.34;5030824;28;20452;-80
2022/01/26 11:33:03;;;;;;;21.55;10.02;;;;;;;2.43;100.00;98925.97;5033959;28;20188;-82
2022/01/26 11:35:35;;;;;;;22.05;9.63;;;;;;;2.22;100.00;98929.19;5041725;28;20148;-82
2022/01/26 11:46:34;;;;;;;23.33;10.10;;;;;;;2.43;100.00;98933.19;5036142;28;20112;-80
2022/01/26 11:49:10;;;;;;;23.33;9.43;;;;;;;2.12;100.00;98955.66;5036408;28;20053;-81
2022/01/26 11:51:44;;;;;;;24.42;10.35;;;;;;;2.27;100.00;98956.03;5017199;28;20057;-82
2022/01/26 11:54:23;;;;;;;24.40;10.40;;;;;;;2.06;100.00;98953.09;5016731;28;20482;-82
2022/01/26 11:57:07;;;;;;;20.30;10.38;;;;;;;2.11;100.00;98934.53;5035434;28;20099;-82
2022/01/26 11:59:36;;;;;;;25.83;11.30;;;;;;;2.13;100.00;98935.94;5030563;28;20053;-80
2022/01/26 12:02:19;;;;;;;20.38;10.32;;;;;;;2.06;100.00;98934.41;5023967;28;20473;-83
2022/01/26 12:05:00;;;;;;;24.60;11.35;;;;;;;2.23;100.00;98935.34;5011509;28;20410;-81
2022/01/26 12:07:27;;;;;;;22.90;10.60;;;;;;;1.99;100.00;98934.47;5046074;28;20045;-82
2022/01/26 12:09:56;;;;;;;23.77;10.60;;;;;;;2.16;100.00;98930.13;5043408;28;20061;-80
2022/01/26 12:12:24;;;;;;;19.92;9.73;;;;;;;2.31;100.00;98933.19;5031104;28;20514;-82
2022/01/26 12:15:11;;;;;;;23.90;11.52;;;;;;;2.28;100.00;98938.97;5029403;28;20049;-82
2022/01/26 12:18:15;;;;;;;21.70;10.27;;;;;;;2.53;100.00;98943.31;5014660;28;20041;-82
2022/01/26 12:45:19;;;;;;;38.92;14.25;;;;;;;2.08;100.00;98964.34;5032679;28;20050;-83
2022/01/26 12:47:48;;;;;;;31.52;14.05;;;;;;;2.17;100.00;98963.00;5035679;28;20072;-80
2022/01/26 12:50:15;;;;;;;35.72;14.93;;;;;;;2.05;100.00;98960.28;5040778;28;20061;-82
2022/01/26 12:52:49;;;;;;;37.42;13.77;;;;;;;2.06;100.00;98945.91;5054844;28;20033;-81
2022/01/26 12:55:21;;;;;;;40.72;15.32;;;;;;;1.91;100.00;98958.03;5047614;28;20092;-81
2022/01/26 12:57:48;;;;;;;37.17;14.65;;;;;;;2.02;100.00;98942.03;5033942;28;20099;-80
2022/01/26 13:00:16;;;;;;;36.83;15.93;;;;;;;2.06;100.00;98956.59;5032547;28;20045;-81
2022/01/26 13:02:43;;;;;;;40.15;15.63;;;;;;;1.82;100.00;98950.34;5036075;28;20053;-82
2022/01/26 13:05:10;;;;;;;38.08;15.80;;;;;;;1.83;100.00;98948.50;5035034;28;20588;-82
2022/01/26 13:07:37;;;;;;;37.22;15.75;;;;;;;2.01;100.00;98953.78;5034407;28;20053;-80
2022/01/26 13:10:17;;;;;;;38.80;16.67;;;;;;;1.94;100.00;98947.69;5044935;28;20080;-82
2022/01/26 13:12:43;;;;;;;35.58;15.73;;;;;;;1.91;100.00;98948.16;5030438;28;20463;-80
2022/01/26 13:15:24;;;;;;;38.17;16.45;;;;;;;1.83;100.00;98949.28;5031259;28;20464;-82
2022/01/26 13:17:56;;;;;;;36.67;15.43;;;;;;;1.70;100.00;98957.47;5017239;28;20111;-82
2022/01/26 13:20:45;;;;;;;;;;;;;;;;;;;;;
2022/01/26 13:41:50;;;;;;;;;;;;;;;;;;;;;
2022/01/26 13:47:08;;;;;;;58.20;21.85;;;;;;;1.24;100.00;98931.38;5035382;28;20049;-82
2022/01/26 14:00:18;;;;;;;58.15;20.88;;;;;;;1.43;100.00;98902.00;5038695;28;20049;-82
2022/01/26 14:02:45;;;;;;;56.35;20.13;;;;;;;1.36;100.00;98898.63;5040347;28;20062;-81
2022/01/26 14:05:12;;;;;;;59.65;18.73;;;;;;;1.47;100.00;98887.19;5041822;28;20057;-80
2022/01/26 14:07:39;;;;;;;66.10;20.52;;;;;;;1.36;100.00;98886.09;5040428;28;20052;-80
2022/01/26 14:10:06;;;;;;;64.55;20.73;;;;;;;1.36;100.00;98879.94;5034482;28;20049;-80
2022/01/26 14:12:38;;;;;;;67.88;21.48;;;;;;;1.46;100.00;98891.72;5036392;28;20768;-82
2022/01/26 14:15:08;;;;;;;68.28;20.70;;;;;;;1.44;100.00;98882.31;5033999;28;20053;-81
2022/01/26 14:17:56;;;;;;;66.30;21.50;;;;;;;1.35;100.00;98872.97;5034312;28;20049;-80
2022/01/26 14:25:55;;;;;;;66.53;20.95;;;;;;;1.25;100.00;98878.84;4979089;28;20503;-81
2022/01/26 14:28:29;;;;;;;62.30;20.85;;;;;;;1.12;100.00;98873.66;5033691;28;20577;-80
2022/01/26 14:53:54;;;;;;;70.80;23.38;;;;;;;1.29;100.00;98873.88;5033242;28;20068;-81
2022/01/26 15:00:05;;;;;;;76.30;25.27;;;;;;;1.37;100.00;98881.59;5033722;28;20053;-83
2022/01/26 15:32:35;;;;;;;64.80;21.23;;;;;;;1.08;100.00;98886.66;5050491;28;19921;-81
2022/01/26 15:40:08;;;;;;;65.07;20.75;;;;;;;1.17;100.00;98903.16;5045190;28;20060;-83
2022/01/26 15:50:45;;;;;;;52.60;18.50;;;;;;;0.90;100.00;98859.19;5048143;28;20143;-80
2022/01/26 15:53:26;;;;;;;61.70;19.55;;;;;;;1.10;100.00;98889.09;5045032;28;20258;-83